sensor_id;sensor_type;location;lat;lon;timestamp;pressure;altitude;pressure_sealevel;temperature;humidity
72802;BME280;61891;55.818;37.084;2022-09-09T00:06:34;100262.53;;;7.17;63.96
72802;BME280;61891;55.818;37.084;2022-09-09T00:09:27;100291.28;;;7.20;63.97
72802;BME280;61891;55.818;37.084;2022-09-09T00:11:55;100239.94;;;6.81;64.17
72802;BME280;61891;55.818;37.084;2022-09-09T00:17:04;100287.22;;;7.04;64.51
72802;BME280;61891;55.818;37.084;2022-09-09T00:19:46;100289.97;;;7.03;65.04
72802;BME280;61891;55.818;37.084;2022-09-09T00:22:17;100289.13;;;7.02;65.05
72802;BME280;61891;55.818;37.084;2022-09-09T00:24:45;100288.19;;;7.03;64.82
72802;BME280;61891;55.818;37.084;2022-09-09T00:30:20;100247.34;;;6.75;65.06
72802;BME280;61891;55.818;37.084;2022-09-09T00:32:50;100295.84;;;7.06;64.60
72802;BME280;61891;55.818;37.084;2022-09-09T00:35:26;100145.97;;;6.14;64.90
72802;BME280;61891;55.818;37.084;2022-09-09T00:37:56;100287.94;;;6.95;64.98
72802;BME280;61891;55.818;37.084;2022-09-09T00:40:35;100216.84;;;6.51;65.20
72802;BME280;61891;55.818;37.084;2022-09-09T00:43:32;100300.88;;;6.98;65.37
72802;BME280;61891;55.818;37.084;2022-09-09T00:46:22;100310.47;;;6.99;65.27
72802;BME280;61891;55.818;37.084;2022-09-09T00:49:08;100317.41;;;7.00;65.49
72802;BME280;61891;55.818;37.084;2022-09-09T01:02:58;100302.31;;;6.91;65.28
72802;BME280;61891;55.818;37.084;2022-09-09T01:05:35;100319.81;;;7.03;64.88
72802;BME280;61891;55.818;37.084;2022-09-09T01:08:05;100301.00;;;6.97;64.95
72802;BME280;61891;55.818;37.084;2022-09-09T01:10:44;100329.28;;;7.06;64.65
72802;BME280;61891;55.818;37.084;2022-09-09T01:13:21;100329.41;;;7.04;64.96
72802;BME280;61891;55.818;37.084;2022-09-09T01:15:48;100325.94;;;7.04;64.51
72802;BME280;61891;55.818;37.084;2022-09-09T01:18:17;100280.91;;;6.73;64.71
72802;BME280;61891;55.818;37.084;2022-09-09T01:24:33;100335.75;;;6.91;65.05
72802;BME280;61891;55.818;37.084;2022-09-09T01:27:13;100322.69;;;6.78;65.17
72802;BME280;61891;55.818;37.084;2022-09-09T01:29:41;100292.13;;;6.53;65.05
72802;BME280;61891;55.818;37.084;2022-09-09T01:37:57;100324.59;;;6.65;64.99
72802;BME280;61891;55.818;37.084;2022-09-09T01:40:24;100337.66;;;6.77;65.03
72802;BME280;61891;55.818;37.084;2022-09-09T01:42:52;100352.41;;;6.80;65.00
72802;BME280;61891;55.818;37.084;2022-09-09T01:45:18;100310.22;;;6.58;65.19
72802;BME280;61891;55.818;37.084;2022-09-09T01:47:45;100348.44;;;6.86;64.96
72802;BME280;61891;55.818;37.084;2022-09-09T01:50:19;100347.13;;;6.91;65.15
72802;BME280;61891;55.818;37.084;2022-09-09T01:52:48;100341.38;;;6.86;65.31
72802;BME280;61891;55.818;37.084;2022-09-09T01:55:23;100350.84;;;6.89;65.24
72802;BME280;61891;55.818;37.084;2022-09-09T02:00:33;100358.16;;;6.96;65.07
72802;BME280;61891;55.818;37.084;2022-09-09T02:03:09;100303.16;;;6.58;65.03
72802;BME280;61891;55.818;37.084;2022-09-09T02:08:48;100369.19;;;6.90;64.86
72802;BME280;61891;55.818;37.084;2022-09-09T02:11:21;100318.84;;;6.60;65.00
72802;BME280;61891;55.818;37.084;2022-09-09T02:14:18;100362.81;;;6.82;64.93
72802;BME280;61891;55.818;37.084;2022-09-09T02:16:55;100339.56;;;6.64;65.09
72802;BME280;61891;55.818;37.084;2022-09-09T02:19:36;100349.72;;;6.58;65.31
72802;BME280;61891;55.818;37.084;2022-09-09T02:22:16;100378.25;;;6.64;65.25
72802;BME280;61891;55.818;37.084;2022-09-09T02:24:43;100372.00;;;6.54;65.54
72802;BME280;61891;55.818;37.084;2022-09-09T02:27:17;100381.19;;;6.48;65.26
72802;BME280;61891;55.818;37.084;2022-09-09T02:29:45;100355.75;;;6.25;65.50
72802;BME280;61891;55.818;37.084;2022-09-09T02:32:16;100386.78;;;6.32;65.83
72802;BME280;61891;55.818;37.084;2022-09-09T02:34:49;100353.19;;;6.12;66.10
72802;BME280;61891;55.818;37.084;2022-09-09T02:37:19;100386.00;;;6.19;65.65
72802;BME280;61891;55.818;37.084;2022-09-09T02:39:49;100396.16;;;6.12;65.48
72802;BME280;61891;55.818;37.084;2022-09-09T02:42:19;100381.75;;;6.05;66.08
72802;BME280;61891;55.818;37.084;2022-09-09T02:44:45;100391.44;;;6.05;65.85
72802;BME280;61891;55.818;37.084;2022-09-09T02:53:04;100391.50;;;5.92;66.11
72802;BME280;61891;55.818;37.084;2022-09-09T02:55:41;100398.03;;;5.87;66.07
72802;BME280;61891;55.818;37.084;2022-09-09T02:58:15;100341.16;;;5.49;65.77
72802;BME280;61891;55.818;37.084;2022-09-09T03:00:52;100403.84;;;5.79;66.16
72802;BME280;61891;55.818;37.084;2022-09-09T03:03:19;100410.16;;;5.76;65.99
72802;BME280;61891;55.818;37.084;2022-09-09T03:05:48;100410.28;;;5.75;66.17
72802;BME280;61891;55.818;37.084;2022-09-09T03:08:14;100392.00;;;5.61;66.08
72802;BME280;61891;55.818;37.084;2022-09-09T03:10:41;100365.03;;;5.46;66.30
72802;BME280;61891;55.818;37.084;2022-09-09T03:13:07;100412.50;;;5.68;66.22
72802;BME280;61891;55.818;37.084;2022-09-09T03:15:37;100406.22;;;5.58;66.41
72802;BME280;61891;55.818;37.084;2022-09-09T03:18:04;100427.34;;;5.69;65.96
72802;BME280;61891;55.818;37.084;2022-09-09T03:20:30;100405.50;;;5.56;66.30
72802;BME280;61891;55.818;37.084;2022-09-09T03:22:57;100425.66;;;5.68;66.31
72802;BME280;61891;55.818;37.084;2022-09-09T03:25:24;100426.50;;;5.69;66.36
72802;BME280;61891;55.818;37.084;2022-09-09T03:27:53;100429.97;;;5.69;66.61
72802;BME280;61891;55.818;37.084;2022-09-09T03:30:25;100374.41;;;5.37;66.07
72802;BME280;61891;55.818;37.084;2022-09-09T03:32:53;100435.00;;;5.72;66.38
72802;BME280;61891;55.818;37.084;2022-09-09T03:35:21;100432.38;;;5.72;66.44
72802;BME280;61891;55.818;37.084;2022-09-09T03:37:47;100420.41;;;5.68;66.89
72802;BME280;61891;55.818;37.084;2022-09-09T03:40:14;100435.13;;;5.71;66.30
72802;BME280;61891;55.818;37.084;2022-09-09T03:42:42;100392.06;;;5.48;66.65
72802;BME280;61891;55.818;37.084;2022-09-09T03:45:11;100422.06;;;5.69;66.50
72802;BME280;61891;55.818;37.084;2022-09-09T03:47:39;100410.09;;;5.65;66.53
72802;BME280;61891;55.818;37.084;2022-09-09T03:50:07;100432.56;;;5.82;66.74
72802;BME280;61891;55.818;37.084;2022-09-09T03:52:36;100432.34;;;5.85;66.54
72802;BME280;61891;55.818;37.084;2022-09-09T03:55:04;100435.50;;;5.90;66.38
72802;BME280;61891;55.818;37.084;2022-09-09T03:57:31;100437.91;;;5.93;66.55
72802;BME280;61891;55.818;37.084;2022-09-09T04:00:05;100436.53;;;6.00;66.73
72802;BME280;61891;55.818;37.084;2022-09-09T04:02:42;100418.66;;;5.93;66.57
72802;BME280;61891;55.818;37.084;2022-09-09T04:05:11;100443.75;;;6.09;66.37
72802;BME280;61891;55.818;37.084;2022-09-09T04:07:39;100435.13;;;6.07;66.50
72802;BME280;61891;55.818;37.084;2022-09-09T04:10:06;100448.22;;;6.20;66.67
72802;BME280;61891;55.818;37.084;2022-09-09T04:12:33;100430.16;;;6.16;66.85
72802;BME280;61891;55.818;37.084;2022-09-09T04:15:00;100444.19;;;6.27;66.03
72802;BME280;61891;55.818;37.084;2022-09-09T04:17:29;100450.59;;;6.36;66.34
72802;BME280;61891;55.818;37.084;2022-09-09T04:19:56;100434.06;;;6.34;66.39
72802;BME280;61891;55.818;37.084;2022-09-09T04:22:22;100423.53;;;6.34;66.41
72802;BME280;61891;55.818;37.084;2022-09-09T04:24:48;100456.16;;;6.55;66.39
72802;BME280;61891;55.818;37.084;2022-09-09T04:27:16;100454.75;;;6.62;65.97
72802;BME280;61891;55.818;37.084;2022-09-09T04:29:42;100456.81;;;6.70;66.08
72802;BME280;61891;55.818;37.084;2022-09-09T04:32:08;100452.75;;;6.77;66.12
72802;BME280;61891;55.818;37.084;2022-09-09T04:34:34;100444.50;;;6.82;66.09
72802;BME280;61891;55.818;37.084;2022-09-09T04:37:00;100451.59;;;6.92;65.75
72802;BME280;61891;55.818;37.084;2022-09-09T04:39:26;100452.56;;;7.02;65.81
72802;BME280;61891;55.818;37.084;2022-09-09T04:41:52;100456.41;;;7.09;65.61
72802;BME280;61891;55.818;37.084;2022-09-09T04:44:20;100460.03;;;7.20;65.49
72802;BME280;61891;55.818;37.084;2022-09-09T04:46:47;100451.41;;;7.29;65.40
72802;BME280;61891;55.818;37.084;2022-09-09T04:49:13;100431.75;;;7.22;65.32
72802;BME280;61891;55.818;37.084;2022-09-09T04:51:39;100456.91;;;7.48;65.38
72802;BME280;61891;55.818;37.084;2022-09-09T04:54:04;100461.34;;;7.59;64.85
72802;BME280;61891;55.818;37.084;2022-09-09T04:56:31;100464.22;;;7.67;64.75
72802;BME280;61891;55.818;37.084;2022-09-09T04:58:59;100464.09;;;7.80;64.77
72802;BME280;61891;55.818;37.084;2022-09-09T05:01:40;100465.63;;;7.93;64.68
72802;BME280;61891;55.818;37.084;2022-09-09T05:04:06;100459.28;;;7.96;64.13
72802;BME280;61891;55.818;37.084;2022-09-09T05:06:33;100463.31;;;8.11;63.75
72802;BME280;61891;55.818;37.084;2022-09-09T05:09:00;100464.97;;;8.23;63.64
72802;BME280;61891;55.818;37.084;2022-09-09T05:11:33;100472.63;;;8.37;63.46
72802;BME280;61891;55.818;37.084;2022-09-09T05:14:17;100480.00;;;8.55;62.77
72802;BME280;61891;55.818;37.084;2022-09-09T05:16:45;100474.69;;;8.66;63.16
72802;BME280;61891;55.818;37.084;2022-09-09T05:19:12;100471.13;;;8.77;62.72
72802;BME280;61891;55.818;37.084;2022-09-09T05:21:47;100456.81;;;8.79;62.39
72802;BME280;61891;55.818;37.084;2022-09-09T05:24:16;100482.03;;;9.04;62.10
72802;BME280;61891;55.818;37.084;2022-09-09T05:26:44;100476.56;;;9.17;61.81
72802;BME280;61891;55.818;37.084;2022-09-09T05:29:10;100428.00;;;8.97;61.57
72802;BME280;61891;55.818;37.084;2022-09-09T05:31:36;100475.69;;;9.37;61.40
72802;BME280;61891;55.818;37.084;2022-09-09T05:34:07;100481.34;;;9.53;61.29
72802;BME280;61891;55.818;37.084;2022-09-09T05:36:33;100469.09;;;9.62;61.09
72802;BME280;61891;55.818;37.084;2022-09-09T05:39:00;100469.84;;;9.74;60.43
72802;BME280;61891;55.818;37.084;2022-09-09T05:41:27;100428.69;;;9.60;60.24
72802;BME280;61891;55.818;37.084;2022-09-09T05:43:56;100476.91;;;10.03;59.75
72802;BME280;61891;55.818;37.084;2022-09-09T05:46:25;100482.66;;;10.18;59.53
72802;BME280;61891;55.818;37.084;2022-09-09T05:48:53;100487.16;;;10.27;59.38
72802;BME280;61891;55.818;37.084;2022-09-09T05:51:26;100483.41;;;10.40;59.13
72802;BME280;61891;55.818;37.084;2022-09-09T05:53:56;100474.38;;;10.42;58.54
72802;BME280;61891;55.818;37.084;2022-09-09T05:56:27;100377.91;;;9.85;58.08
72802;BME280;61891;55.818;37.084;2022-09-09T05:58:55;100449.22;;;10.37;58.05
72802;BME280;61891;55.818;37.084;2022-09-09T06:01:27;100482.34;;;10.61;57.55
72802;BME280;61891;55.818;37.084;2022-09-09T06:03:54;100491.97;;;10.72;57.79
72802;BME280;61891;55.818;37.084;2022-09-09T06:06:24;100419.09;;;10.38;57.67
72802;BME280;61891;55.818;37.084;2022-09-09T06:08:54;100497.81;;;10.95;57.23
72802;BME280;61891;55.818;37.084;2022-09-09T06:11:26;100417.19;;;10.49;57.21
72802;BME280;61891;55.818;37.084;2022-09-09T06:13:52;100490.25;;;11.10;57.02
72802;BME280;61891;55.818;37.084;2022-09-09T06:16:22;100506.69;;;11.23;56.76
72802;BME280;61891;55.818;37.084;2022-09-09T06:18:50;100504.16;;;11.31;56.72
72802;BME280;61891;55.818;37.084;2022-09-09T06:21:21;100467.47;;;11.17;56.30
72802;BME280;61891;55.818;37.084;2022-09-09T06:23:48;100512.22;;;11.49;55.65
72802;BME280;61891;55.818;37.084;2022-09-09T06:26:16;100509.69;;;11.57;56.06
72802;BME280;61891;55.818;37.084;2022-09-09T06:28:47;100504.91;;;11.60;55.46
72802;BME280;61891;55.818;37.084;2022-09-09T06:31:16;100507.00;;;11.67;55.13
72802;BME280;61891;55.818;37.084;2022-09-09T06:33:54;100476.13;;;11.56;54.68
72802;BME280;61891;55.818;37.084;2022-09-09T06:36:28;100513.09;;;11.86;54.92
72802;BME280;61891;55.818;37.084;2022-09-09T06:46:47;100522.34;;;11.82;54.11
72802;BME280;61891;55.818;37.084;2022-09-09T06:49:14;100523.78;;;12.04;53.72
72802;BME280;61891;55.818;37.084;2022-09-09T06:51:41;100525.88;;;12.01;53.93
72802;BME280;61891;55.818;37.084;2022-09-09T06:54:11;100528.25;;;12.04;54.00
72802;BME280;61891;55.818;37.084;2022-09-09T06:56:44;100522.41;;;12.00;53.66
72802;BME280;61891;55.818;37.084;2022-09-09T06:59:18;100535.03;;;12.16;53.50
72802;BME280;61891;55.818;37.084;2022-09-09T07:01:45;100538.28;;;12.10;53.50
72802;BME280;61891;55.818;37.084;2022-09-09T07:04:13;100521.00;;;11.96;53.05
72802;BME280;61891;55.818;37.084;2022-09-09T07:06:43;100523.66;;;11.96;53.16
72802;BME280;61891;55.818;37.084;2022-09-09T07:09:13;100530.22;;;12.02;53.17
72802;BME280;61891;55.818;37.084;2022-09-09T07:11:48;100522.72;;;12.15;52.92
72802;BME280;61891;55.818;37.084;2022-09-09T07:14:15;100517.09;;;12.45;52.73
72802;BME280;61891;55.818;37.084;2022-09-09T07:16:45;100526.28;;;12.51;52.14
72802;BME280;61891;55.818;37.084;2022-09-09T07:19:13;100548.34;;;12.61;52.21
72802;BME280;61891;55.818;37.084;2022-09-09T07:21:41;100550.00;;;12.62;52.15
72802;BME280;61891;55.818;37.084;2022-09-09T07:24:09;100534.03;;;12.44;52.26
72802;BME280;61891;55.818;37.084;2022-09-09T07:26:38;100559.09;;;12.42;51.95
72802;BME280;61891;55.818;37.084;2022-09-09T07:29:04;100553.13;;;12.57;52.12
72802;BME280;61891;55.818;37.084;2022-09-09T07:31:34;100553.72;;;12.69;51.13
72802;BME280;61891;55.818;37.084;2022-09-09T07:34:01;100560.19;;;12.67;51.08
72802;BME280;61891;55.818;37.084;2022-09-09T07:36:33;100561.41;;;12.72;50.67
72802;BME280;61891;55.818;37.084;2022-09-09T07:39:03;100559.13;;;13.31;50.54
72802;BME280;61891;55.818;37.084;2022-09-09T07:41:35;100476.78;;;13.37;50.41
72802;BME280;61891;55.818;37.084;2022-09-09T07:44:09;100558.34;;;14.32;48.60
72802;BME280;61891;55.818;37.084;2022-09-09T07:46:36;100567.84;;;14.35;50.08
72802;BME280;61891;55.818;37.084;2022-09-09T07:49:04;100577.09;;;14.48;48.36
72802;BME280;61891;55.818;37.084;2022-09-09T07:51:35;100572.09;;;14.45;48.46
72802;BME280;61891;55.818;37.084;2022-09-09T07:54:04;100581.63;;;14.56;47.76
72802;BME280;61891;55.818;37.084;2022-09-09T07:56:32;100562.63;;;14.67;47.36
72802;BME280;61891;55.818;37.084;2022-09-09T07:58:59;100577.38;;;15.04;47.26
72802;BME280;61891;55.818;37.084;2022-09-09T08:04:02;100564.66;;;15.46;47.69
72802;BME280;61891;55.818;37.084;2022-09-09T08:06:31;100566.03;;;15.67;46.37
72802;BME280;61891;55.818;37.084;2022-09-09T08:08:59;100544.81;;;15.73;46.41
72802;BME280;61891;55.818;37.084;2022-09-09T08:11:25;100576.59;;;16.16;43.47
72802;BME280;61891;55.818;37.084;2022-09-09T08:13:52;100537.59;;;16.21;45.73
72802;BME280;61891;55.818;37.084;2022-09-09T08:16:25;100578.59;;;16.53;45.24
72802;BME280;61891;55.818;37.084;2022-09-09T08:18:52;100566.28;;;16.74;45.22
72802;BME280;61891;55.818;37.084;2022-09-09T08:21:25;100568.50;;;16.94;44.57
72802;BME280;61891;55.818;37.084;2022-09-09T08:23:55;100580.75;;;17.11;43.37
72802;BME280;61891;55.818;37.084;2022-09-09T08:26:27;100565.63;;;17.18;42.02
72802;BME280;61891;55.818;37.084;2022-09-09T08:28:56;100582.22;;;17.36;41.15
72802;BME280;61891;55.818;37.084;2022-09-09T08:31:29;100582.69;;;17.40;42.20
72802;BME280;61891;55.818;37.084;2022-09-09T08:33:57;100568.75;;;17.45;41.86
72802;BME280;61891;55.818;37.084;2022-09-09T08:36:27;100576.28;;;17.26;42.52
72802;BME280;61891;55.818;37.084;2022-09-09T08:38:54;100574.69;;;16.94;42.81
72802;BME280;61891;55.818;37.084;2022-09-09T08:46:56;100592.91;;;16.29;43.22
72802;BME280;61891;55.818;37.084;2022-09-09T08:52:16;100541.94;;;15.51;43.98
72802;BME280;61891;55.818;37.084;2022-09-09T08:54:45;100584.72;;;15.59;43.27
72802;BME280;61891;55.818;37.084;2022-09-09T08:57:20;100552.66;;;15.26;43.20
72802;BME280;61891;55.818;37.084;2022-09-09T08:59:49;100601.59;;;15.43;43.16
72802;BME280;61891;55.818;37.084;2022-09-09T09:02:28;100603.91;;;15.38;43.13
72802;BME280;61891;55.818;37.084;2022-09-09T09:05:07;100602.09;;;15.38;43.01
72802;BME280;61891;55.818;37.084;2022-09-09T09:12:54;100603.50;;;16.53;42.64
72802;BME280;61891;55.818;37.084;2022-09-09T09:15:31;100563.00;;;16.56;41.27
72802;BME280;61891;55.818;37.084;2022-09-09T09:18:04;100607.09;;;16.77;41.87
72802;BME280;61891;55.818;37.084;2022-09-09T09:20:51;100597.78;;;16.64;41.33
72802;BME280;61891;55.818;37.084;2022-09-09T09:23:25;100592.38;;;16.41;42.37
72802;BME280;61891;55.818;37.084;2022-09-09T09:25:59;100580.03;;;16.32;41.70
72802;BME280;61891;55.818;37.084;2022-09-09T09:28:29;100585.53;;;16.39;41.44
72802;BME280;61891;55.818;37.084;2022-09-09T09:31:10;100593.41;;;16.63;41.24
72802;BME280;61891;55.818;37.084;2022-09-09T09:33:49;100597.69;;;16.81;40.85
72802;BME280;61891;55.818;37.084;2022-09-09T09:36:17;100578.19;;;17.55;40.60
72802;BME280;61891;55.818;37.084;2022-09-09T09:38:57;100580.81;;;19.30;38.58
72802;BME280;61891;55.818;37.084;2022-09-09T09:41:41;100541.34;;;19.59;37.33
72802;BME280;61891;55.818;37.084;2022-09-09T09:44:28;100594.06;;;19.81;36.69
72802;BME280;61891;55.818;37.084;2022-09-09T09:49:39;100593.34;;;19.45;37.67
72802;BME280;61891;55.818;37.084;2022-09-09T09:52:06;100603.03;;;19.18;37.78
72802;BME280;61891;55.818;37.084;2022-09-09T09:54:41;100495.63;;;18.10;37.78
72802;BME280;61891;55.818;37.084;2022-09-09T09:57:12;100592.94;;;18.33;37.62
72802;BME280;61891;55.818;37.084;2022-09-09T09:59:40;100592.97;;;18.03;38.71
72802;BME280;61891;55.818;37.084;2022-09-09T10:04:38;100586.66;;;17.67;38.75
72802;BME280;61891;55.818;37.084;2022-09-09T10:07:37;100595.38;;;17.84;38.03
72802;BME280;61891;55.818;37.084;2022-09-09T10:09:57;100585.28;;;18.00;39.17
72802;BME280;61891;55.818;37.084;2022-09-09T10:12:48;100604.13;;;18.66;37.97
72802;BME280;61891;55.818;37.084;2022-09-09T10:29:32;100578.50;;;19.77;35.40
72802;BME280;61891;55.818;37.084;2022-09-09T10:32:45;100622.03;;;19.38;36.79
72802;BME280;61891;55.818;37.084;2022-09-09T10:40:38;100610.00;;;18.25;37.09
72802;BME280;61891;55.818;37.084;2022-09-09T10:46:12;100619.31;;;17.85;37.33
72802;BME280;61891;55.818;37.084;2022-09-09T10:56:49;100579.00;;;18.23;36.39
72802;BME280;61891;55.818;37.084;2022-09-09T10:59:25;100613.13;;;18.44;36.50
72802;BME280;61891;55.818;37.084;2022-09-09T11:02:13;100583.13;;;20.72;35.23
72802;BME280;61891;55.818;37.084;2022-09-09T11:07:48;100610.38;;;25.67;30.33
72802;BME280;61891;55.818;37.084;2022-09-09T11:10:38;100612.91;;;27.41;27.74
72802;BME280;61891;55.818;37.084;2022-09-09T11:13:25;100600.53;;;27.50;27.87
72802;BME280;61891;55.818;37.084;2022-09-09T11:15:58;100606.03;;;25.66;29.93
72802;BME280;61891;55.818;37.084;2022-09-09T11:18:28;100611.91;;;24.07;31.40
72802;BME280;61891;55.818;37.084;2022-09-09T11:21:00;100600.44;;;22.67;31.42
72802;BME280;61891;55.818;37.084;2022-09-09T11:23:49;100599.66;;;21.69;31.10
72802;BME280;61891;55.818;37.084;2022-09-09T11:26:27;100612.09;;;21.17;31.30
72802;BME280;61891;55.818;37.084;2022-09-09T11:28:58;100607.16;;;20.67;33.22
72802;BME280;61891;55.818;37.084;2022-09-09T11:37:17;100571.97;;;24.39;30.36
72802;BME280;61891;55.818;37.084;2022-09-09T11:42:24;100600.50;;;29.15;28.90
72802;BME280;61891;55.818;37.084;2022-09-09T11:44:51;100606.19;;;29.40;26.10
72802;BME280;61891;55.818;37.084;2022-09-09T11:50:06;100583.03;;;27.29;27.10
72802;BME280;61891;55.818;37.084;2022-09-09T11:52:39;100603.31;;;25.78;28.20
72802;BME280;61891;55.818;37.084;2022-09-09T11:55:34;100596.28;;;24.27;28.11
72802;BME280;61891;55.818;37.084;2022-09-09T11:58:15;100573.25;;;23.00;28.66
72802;BME280;61891;55.818;37.084;2022-09-09T12:00:47;100589.41;;;22.69;29.22
72802;BME280;61891;55.818;37.084;2022-09-09T12:03:36;100601.09;;;22.05;29.48
72802;BME280;61891;55.818;37.084;2022-09-09T12:06:16;100575.97;;;22.56;29.75
72802;BME280;61891;55.818;37.084;2022-09-09T12:08:47;100594.25;;;25.31;29.14
72802;BME280;61891;55.818;37.084;2022-09-09T12:11:25;100599.94;;;27.48;26.83
72802;BME280;61891;55.818;37.084;2022-09-09T12:13:53;100610.94;;;28.47;26.55
72802;BME280;61891;55.818;37.084;2022-09-09T12:16:36;100577.38;;;29.55;24.78
72802;BME280;61891;55.818;37.084;2022-09-09T12:19:15;100603.81;;;31.16;24.38
72802;BME280;61891;55.818;37.084;2022-09-09T12:24:30;100609.81;;;31.13;24.30
72802;BME280;61891;55.818;37.084;2022-09-09T12:30:04;100611.72;;;27.20;24.46
72802;BME280;61891;55.818;37.084;2022-09-09T12:32:35;100608.34;;;25.63;26.72
72802;BME280;61891;55.818;37.084;2022-09-09T12:35:20;100591.00;;;24.14;26.88
72802;BME280;61891;55.818;37.084;2022-09-09T12:40:30;100603.13;;;22.23;28.58
72802;BME280;61891;55.818;37.084;2022-09-09T12:42:57;100591.75;;;24.58;27.58
72802;BME280;61891;55.818;37.084;2022-09-09T12:45:29;100601.69;;;27.38;26.42
72802;BME280;61891;55.818;37.084;2022-09-09T12:50:30;100576.94;;;31.08;23.96
72802;BME280;61891;55.818;37.084;2022-09-09T12:53:03;100575.75;;;32.31;21.64
72802;BME280;61891;55.818;37.084;2022-09-09T12:55:35;100593.56;;;33.61;22.50
72802;BME280;61891;55.818;37.084;2022-09-09T12:58:02;100597.94;;;34.63;22.30
72802;BME280;61891;55.818;37.084;2022-09-09T13:00:33;100594.28;;;35.56;21.70
72802;BME280;61891;55.818;37.084;2022-09-09T13:03:16;100590.00;;;36.37;18.79
72802;BME280;61891;55.818;37.084;2022-09-09T13:05:42;100578.28;;;36.82;19.88
72802;BME280;61891;55.818;37.084;2022-09-09T13:08:12;100571.19;;;37.11;19.18
72802;BME280;61891;55.818;37.084;2022-09-09T13:10:53;100578.97;;;37.54;19.75
72802;BME280;61891;55.818;37.084;2022-09-09T13:13:28;100581.16;;;37.97;19.08
72802;BME280;61891;55.818;37.084;2022-09-09T13:15:57;100584.06;;;36.03;21.38
72802;BME280;61891;55.818;37.084;2022-09-09T13:18:28;100496.88;;;33.49;20.02
72802;BME280;61891;55.818;37.084;2022-09-09T13:20:56;100579.00;;;33.89;20.06
72802;BME280;61891;55.818;37.084;2022-09-09T13:23:27;100567.66;;;31.55;20.19
72802;BME280;61891;55.818;37.084;2022-09-09T13:26:01;100591.25;;;31.51;20.13
72802;BME280;61891;55.818;37.084;2022-09-09T13:28:29;100577.22;;;30.96;21.20
72802;BME280;61891;55.818;37.084;2022-09-09T13:31:00;100593.81;;;30.59;21.58
72802;BME280;61891;55.818;37.084;2022-09-09T13:35:57;100583.50;;;29.08;22.33
72802;BME280;61891;55.818;37.084;2022-09-09T13:38:24;100588.22;;;27.48;23.17
72802;BME280;61891;55.818;37.084;2022-09-09T13:41:01;100580.28;;;26.04;23.70
72802;BME280;61891;55.818;37.084;2022-09-09T13:43:35;100565.19;;;27.72;22.73
72802;BME280;61891;55.818;37.084;2022-09-09T13:46:04;100590.25;;;28.51;22.66
72802;BME280;61891;55.818;37.084;2022-09-09T13:48:31;100549.41;;;30.42;22.17
72802;BME280;61891;55.818;37.084;2022-09-09T13:51:02;100581.38;;;30.31;21.71
72802;BME280;61891;55.818;37.084;2022-09-09T13:53:31;100584.06;;;31.09;21.35
72802;BME280;61891;55.818;37.084;2022-09-09T13:55:57;100584.66;;;32.62;21.12
72802;BME280;61891;55.818;37.084;2022-09-09T13:58:24;100578.84;;;33.76;20.36
72802;BME280;61891;55.818;37.084;2022-09-09T14:00:52;100575.31;;;34.66;19.54
72802;BME280;61891;55.818;37.084;2022-09-09T14:03:18;100574.31;;;35.32;19.44
72802;BME280;61891;55.818;37.084;2022-09-09T14:05:44;100572.47;;;35.73;19.61
72802;BME280;61891;55.818;37.084;2022-09-09T14:08:20;100569.13;;;36.04;18.17
72802;BME280;61891;55.818;37.084;2022-09-09T14:10:47;100573.72;;;34.59;18.77
72802;BME280;61891;55.818;37.084;2022-09-09T14:13:16;100567.81;;;32.74;19.96
72802;BME280;61891;55.818;37.084;2022-09-09T14:15:41;100570.41;;;31.55;19.95
72802;BME280;61891;55.818;37.084;2022-09-09T14:18:12;100583.56;;;30.29;20.67
72802;BME280;61891;55.818;37.084;2022-09-09T14:20:38;100547.94;;;28.05;22.79
72802;BME280;61891;55.818;37.084;2022-09-09T14:23:04;100569.09;;;26.52;23.05
72802;BME280;61891;55.818;37.084;2022-09-09T14:25:30;100570.75;;;25.25;23.46
72802;BME280;61891;55.818;37.084;2022-09-09T14:27:56;100556.22;;;24.11;24.72
72802;BME280;61891;55.818;37.084;2022-09-09T14:30:22;100560.41;;;24.62;24.10
72802;BME280;61891;55.818;37.084;2022-09-09T14:32:48;100563.59;;;24.04;24.30
72802;BME280;61891;55.818;37.084;2022-09-09T14:35:14;100564.72;;;23.53;24.80
72802;BME280;61891;55.818;37.084;2022-09-09T14:37:39;100562.41;;;24.36;24.36
72802;BME280;61891;55.818;37.084;2022-09-09T14:40:09;100554.13;;;26.26;22.82
72802;BME280;61891;55.818;37.084;2022-09-09T14:42:35;100559.13;;;26.58;23.56
72802;BME280;61891;55.818;37.084;2022-09-09T14:45:01;100556.00;;;26.94;23.26
72802;BME280;61891;55.818;37.084;2022-09-09T14:47:30;100567.72;;;26.67;23.55
72802;BME280;61891;55.818;37.084;2022-09-09T14:49:55;100564.69;;;27.58;22.99
72802;BME280;61891;55.818;37.084;2022-09-09T14:52:21;100568.09;;;28.70;22.58
72802;BME280;61891;55.818;37.084;2022-09-09T14:54:47;100567.00;;;29.57;22.12
72802;BME280;61891;55.818;37.084;2022-09-09T14:57:12;100566.28;;;30.19;22.22
72802;BME280;61891;55.818;37.084;2022-09-09T14:59:38;100562.91;;;30.59;21.54
72802;BME280;61891;55.818;37.084;2022-09-09T15:02:04;100554.72;;;30.79;21.62
72802;BME280;61891;55.818;37.084;2022-09-09T15:04:30;100536.22;;;30.24;21.55
72802;BME280;61891;55.818;37.084;2022-09-09T15:06:56;100553.16;;;30.15;21.24
72802;BME280;61891;55.818;37.084;2022-09-09T15:09:22;100542.72;;;30.07;21.77
72802;BME280;61891;55.818;37.084;2022-09-09T15:11:48;100558.63;;;30.15;21.88
72802;BME280;61891;55.818;37.084;2022-09-09T15:14:14;100563.78;;;29.65;21.54